Time;durP1;ratioP1;P1;durP2;ratioP2;P2;SDS_P1;SDS_P2;PMS_P1;PMS_P2;Temp;Humidity;BMP_temperature;BMP_pressure;BME280_temperature;BME280_humidity;BME280_pressure;Samples;Min_cycle;Max_cycle;Signal;HPM_P1;HPM_P2
2022/01/15 00:01:45;;;;;;;57.33;49.38;;;;;;;-145.93;100.00;59239.47;4926867;29;20030;-86
2022/01/15 00:04:13;;;;;;;54.60;48.80;;;;;;;-145.93;100.00;59239.47;4917122;29;20028;-88
2022/01/15 00:06:42;;;;;;;56.72;49.22;;;;;;;-145.93;100.00;59239.47;4918585;29;20329;-89
2022/01/15 00:09:07;;;;;;;59.60;49.33;;;;;;;-145.93;100.00;59239.47;4925198;29;20460;-88
2022/01/15 00:11:34;;;;;;;54.85;48.55;;;;;;;-145.93;100.00;59239.47;4928373;29;20027;-87
2022/01/15 00:14:21;;;;;;;55.75;48.83;;;;;;;-145.93;100.00;59239.47;4927791;28;20055;-89
2022/01/15 00:16:49;;;;;;;72.05;50.72;;;;;;;-145.93;100.00;59239.47;4926895;29;20091;-90
2022/01/15 00:19:17;;;;;;;60.03;49.08;;;;;;;-145.93;100.00;59239.47;4928818;29;20028;-89
2022/01/15 00:21:46;;;;;;;65.85;49.25;;;;;;;-145.93;100.00;59239.47;4940185;29;20020;-89
2022/01/15 00:24:11;;;;;;;64.18;48.92;;;;;;;-145.93;100.00;59239.47;4908140;29;20032;-87
2022/01/15 00:26:37;;;;;;;55.40;49.40;;;;;;;-145.93;100.00;59239.47;4916379;29;20104;-88
2022/01/15 00:29:02;;;;;;;60.60;50.43;;;;;;;-145.93;100.00;59239.47;4933529;28;20019;-90
2022/01/15 00:31:28;;;;;;;62.63;51.03;;;;;;;-145.93;100.00;59239.47;4952395;29;20055;-90
2022/01/15 00:33:54;;;;;;;62.97;49.38;;;;;;;-145.93;100.00;59239.47;4927673;29;20012;-88
2022/01/15 00:36:20;;;;;;;58.93;49.30;;;;;;;-145.93;100.00;59239.47;4927120;29;20083;-90
2022/01/15 00:38:53;;;;;;;60.50;49.95;;;;;;;-145.93;100.00;59239.47;4926950;29;20031;-90
2022/01/15 00:41:18;;;;;;;65.38;49.53;;;;;;;-145.93;100.00;59239.47;4942442;28;20020;-90
2022/01/15 00:43:44;;;;;;;54.93;49.03;;;;;;;-145.93;100.00;59239.47;4927372;29;20080;-91
2022/01/15 00:46:09;;;;;;;54.10;48.13;;;;;;;-145.93;100.00;59239.47;4922396;29;20099;-87
2022/01/15 00:48:36;;;;;;;55.43;48.03;;;;;;;-145.93;100.00;59239.47;4923174;29;20070;-88
2022/01/15 00:51:01;;;;;;;;;;;;;;;-145.93;100.00;59239.47;4917540;29;20027;-86
2022/01/15 00:53:27;;;;;;;55.50;49.28;;;;;;;-145.93;100.00;59239.47;4921096;29;19917;-88
2022/01/15 00:55:52;;;;;;;57.47;48.83;;;;;;;-145.93;100.00;59239.47;4928242;29;20020;-90
2022/01/15 00:58:17;;;;;;;55.33;49.40;;;;;;;-145.93;100.00;59239.47;4927057;29;20019;-90
2022/01/15 01:00:45;;;;;;;55.00;49.13;;;;;;;-145.93;100.00;59239.47;4928236;29;20031;-89
2022/01/15 01:03:12;;;;;;;53.90;48.40;;;;;;;-145.93;100.00;59239.47;4928121;29;20038;-90
2022/01/15 01:05:41;;;;;;;53.95;48.17;;;;;;;-145.93;100.00;59239.47;4927116;29;20020;-89
2022/01/15 01:08:06;;;;;;;57.67;48.80;;;;;;;-145.93;100.00;59239.47;4916715;29;20016;-91
2022/01/15 01:13:27;;;;;;;53.88;48.40;;;;;;;-145.93;100.00;59239.47;4936038;29;20057;-88
2022/01/15 01:20:04;;;;;;;56.70;48.50;;;;;;;-145.93;100.00;59239.47;4933821;29;20088;-90
2022/01/15 01:24:11;;;;;;;52.33;47.03;;;;;;;-145.93;100.00;59239.47;4916915;29;20071;-86
2022/01/15 01:26:48;;;;;;;63.53;49.97;;;;;;;-145.93;100.00;59239.47;4900675;29;20008;-87
2022/01/15 01:29:32;;;;;;;53.17;47.17;;;;;;;-145.93;100.00;59239.47;4933180;29;20165;-86
2022/01/15 01:34:31;;;;;;;57.40;48.53;;;;;;;-145.93;100.00;59239.47;4911612;29;20024;-86
2022/01/15 01:37:19;;;;;;;54.70;48.80;;;;;;;-145.93;100.00;59239.47;4902259;29;20035;-86
2022/01/15 01:39:49;;;;;;;60.22;50.90;;;;;;;-145.93;100.00;59239.47;4919375;29;20087;-86
2022/01/15 01:45:12;;;;;;;62.03;49.50;;;;;;;-145.93;100.00;59239.47;4931446;29;20087;-87
2022/01/15 01:47:42;;;;;;;57.25;49.70;;;;;;;-145.93;100.00;59239.47;4914735;29;20020;-86
2022/01/15 01:50:13;;;;;;;61.88;49.70;;;;;;;-145.93;100.00;59239.47;4920191;29;20063;-85
2022/01/15 01:52:44;;;;;;;72.88;53.03;;;;;;;-145.93;100.00;59239.47;4896397;29;20052;-85
2022/01/15 01:55:10;;;;;;;54.38;48.70;;;;;;;-145.93;100.00;59239.47;4896282;29;20020;-84
2022/01/15 01:57:35;;;;;;;;;;;;;;;-145.93;100.00;59239.47;4899441;29;20375;-86
2022/01/15 02:00:07;;;;;;;59.42;49.33;;;;;;;-145.93;100.00;59239.47;4916409;29;19966;-85
2022/01/15 02:02:32;;;;;;;53.55;47.83;;;;;;;-145.93;100.00;59239.47;4914534;29;20142;-85
2022/01/15 02:04:58;;;;;;;61.30;49.40;;;;;;;-145.93;100.00;59239.47;4900697;29;20044;-84
2022/01/15 02:07:27;;;;;;;55.42;49.47;;;;;;;-145.93;100.00;59239.47;4902398;29;20036;-84
2022/01/15 02:09:54;;;;;;;63.75;49.75;;;;;;;-145.93;100.00;59239.47;4925668;29;20064;-85
2022/01/15 02:12:19;;;;;;;;;;;;;;;-145.93;100.00;59239.47;4907273;29;20045;-85
2022/01/15 02:14:44;;;;;;;56.35;49.63;;;;;;;-145.93;100.00;59239.47;4911866;29;19911;-86
2022/01/15 02:17:12;;;;;;;63.20;49.33;;;;;;;-145.93;100.00;59239.47;4913373;29;20100;-85
2022/01/15 02:20:08;;;;;;;58.92;48.17;;;;;;;-145.93;100.00;59239.47;4915532;29;20033;-86
2022/01/15 02:25:15;;;;;;;54.17;48.10;;;;;;;-145.93;100.00;59239.47;4934292;29;20035;-84
2022/01/15 02:27:44;;;;;;;54.93;48.57;;;;;;;-145.93;100.00;59239.47;4921189;29;20087;-87
2022/01/15 02:30:10;;;;;;;53.20;47.97;;;;;;;-145.93;100.00;59239.47;4923778;29;20024;-87
2022/01/15 02:32:38;;;;;;;63.33;50.08;;;;;;;-145.93;100.00;59239.47;4913106;29;20030;-86
2022/01/15 02:35:07;;;;;;;54.42;48.75;;;;;;;-145.93;100.00;59239.47;4895754;29;20028;-86
2022/01/15 02:37:32;;;;;;;54.13;48.28;;;;;;;-145.93;100.00;59239.47;4899339;29;20087;-86
2022/01/15 02:39:58;;;;;;;55.73;48.97;;;;;;;-145.93;100.00;59239.47;4930448;29;20031;-86
2022/01/15 02:42:30;;;;;;;57.17;47.40;;;;;;;-145.93;100.00;59239.47;4908234;29;20043;-86
2022/01/15 02:45:01;;;;;;;55.25;49.28;;;;;;;-145.93;100.00;59239.47;4894602;29;20383;-86
2022/01/15 02:50:10;;;;;;;56.85;49.33;;;;;;;-145.93;100.00;59239.47;4947365;29;20052;-86
2022/01/15 02:52:36;;;;;;;89.07;52.17;;;;;;;-145.93;100.00;59239.47;4923567;29;20079;-87
2022/01/15 02:55:01;;;;;;;54.17;48.57;;;;;;;-145.93;100.00;59239.47;4914690;29;20039;-86
2022/01/15 02:57:26;;;;;;;57.63;49.20;;;;;;;-145.93;100.00;59239.47;4912435;29;20478;-85
2022/01/15 02:59:54;;;;;;;55.67;48.80;;;;;;;-145.93;100.00;59239.47;4918384;29;20047;-86
2022/01/15 03:02:19;;;;;;;58.58;48.80;;;;;;;-145.93;100.00;59239.47;4924608;29;20016;-87
2022/01/15 03:04:45;;;;;;;58.87;48.10;;;;;;;-145.93;100.00;59239.47;4911125;29;20039;-85
2022/01/15 03:07:13;;;;;;;60.60;49.57;;;;;;;-145.93;100.00;59239.47;4906207;29;20591;-85
2022/01/15 03:09:41;;;;;;;60.55;49.85;;;;;;;-145.93;100.00;59239.47;4945966;23;20027;-88
2022/01/15 03:12:10;;;;;;;58.92;48.85;;;;;;;-145.93;100.00;59239.47;4943131;29;20023;-88
2022/01/15 03:14:35;;;;;;;54.13;48.80;;;;;;;-145.93;100.00;59239.47;4945844;28;20042;-87
2022/01/15 03:17:01;;;;;;;59.37;48.30;;;;;;;-145.93;100.00;59239.47;4954214;28;20034;-88
2022/01/15 03:19:26;;;;;;;60.80;49.10;;;;;;;-145.93;100.00;59239.47;4953978;28;20032;-90
2022/01/15 03:21:52;;;;;;;54.30;48.67;;;;;;;-145.93;100.00;59239.47;4935834;29;20031;-88
2022/01/15 03:24:18;;;;;;;54.55;49.38;;;;;;;-145.93;100.00;59239.47;4939941;29;20027;-88
2022/01/15 03:26:43;;;;;;;63.53;50.27;;;;;;;-145.93;100.00;59239.47;4933787;29;20035;-89
2022/01/15 03:29:09;;;;;;;60.20;49.27;;;;;;;-145.93;100.00;59239.47;4927175;29;20035;-88
2022/01/15 03:31:34;;;;;;;54.17;48.57;;;;;;;-145.93;100.00;59239.47;4943837;28;20032;-88
2022/01/15 03:33:59;;;;;;;64.00;49.83;;;;;;;-145.93;100.00;59239.47;4950035;28;20019;-88
2022/01/15 03:36:25;;;;;;;54.13;48.70;;;;;;;-145.93;100.00;59239.47;4947405;28;20051;-88
2022/01/15 03:38:50;;;;;;;55.23;49.40;;;;;;;-145.93;100.00;59239.47;4939699;29;20015;-88
2022/01/15 03:41:16;;;;;;;55.53;49.50;;;;;;;-145.93;100.00;59239.47;4948430;28;20027;-89
2022/01/15 03:43:41;;;;;;;58.92;49.67;;;;;;;-145.93;100.00;59239.47;4952319;28;20043;-87
2022/01/15 03:46:07;;;;;;;79.53;54.77;;;;;;;-145.93;100.00;59239.47;4946738;28;20017;-86
2022/01/15 03:48:35;;;;;;;54.07;48.50;;;;;;;-145.93;100.00;59239.47;4959414;28;20071;-87
2022/01/15 03:51:03;;;;;;;58.28;48.67;;;;;;;-145.93;100.00;59239.47;4945056;28;20056;-88
2022/01/15 03:53:29;;;;;;;60.40;50.00;;;;;;;-145.93;100.00;59239.47;4957423;28;20019;-85
2022/01/15 03:55:54;;;;;;;56.33;49.63;;;;;;;-145.93;100.00;59239.47;4947176;28;20047;-88
2022/01/15 03:58:20;;;;;;;57.33;49.03;;;;;;;-145.93;100.00;59239.47;4946655;28;20036;-88
2022/01/15 04:00:45;;;;;;;56.58;49.78;;;;;;;-145.93;100.00;59239.47;4965344;28;20035;-88
2022/01/15 04:03:11;;;;;;;54.27;48.43;;;;;;;-145.93;100.00;59239.47;4939499;29;20031;-88
2022/01/15 04:05:37;;;;;;;56.25;48.83;;;;;;;-145.93;100.00;59239.47;4949694;29;20027;-88
2022/01/15 04:08:02;;;;;;;58.77;49.53;;;;;;;-145.93;100.00;59239.47;4936125;29;20054;-88
2022/01/15 04:10:28;;;;;;;54.77;48.60;;;;;;;-145.93;100.00;59239.47;4933713;28;20027;-88
2022/01/15 04:12:53;;;;;;;58.27;48.83;;;;;;;-145.93;100.00;59239.47;4941320;28;20031;-88
2022/01/15 04:15:20;;;;;;;63.43;49.53;;;;;;;-145.93;100.00;59239.47;4937920;29;20106;-88
2022/01/15 04:17:48;;;;;;;53.78;47.83;;;;;;;-145.93;100.00;59239.47;4935049;29;20260;-88
2022/01/15 04:20:16;;;;;;;57.80;49.63;;;;;;;-145.93;100.00;59239.47;4933130;29;20105;-89
2022/01/15 04:22:42;;;;;;;54.05;48.25;;;;;;;-145.93;100.00;59239.47;4941987;28;20019;-88
2022/01/15 04:25:08;;;;;;;55.77;49.13;;;;;;;-145.93;100.00;59239.47;4948484;29;20055;-87
2022/01/15 04:27:33;;;;;;;55.55;48.47;;;;;;;-145.93;100.00;59239.47;4941660;28;20011;-87
2022/01/15 04:30:02;;;;;;;55.17;49.17;;;;;;;-145.93;100.00;59239.47;4932407;29;20035;-86
2022/01/15 04:32:28;;;;;;;54.75;49.08;;;;;;;-145.93;100.00;59239.47;4928981;29;20008;-87
2022/01/15 04:34:53;;;;;;;57.20;48.83;;;;;;;-145.93;100.00;59239.47;4928563;29;20111;-87
2022/01/15 04:37:22;;;;;;;55.20;49.53;;;;;;;-145.93;100.00;59239.47;4928830;29;20091;-86
2022/01/15 04:39:48;;;;;;;59.53;50.45;;;;;;;-145.93;100.00;59239.47;4929841;28;20295;-90
2022/01/15 04:42:15;;;;;;;58.85;50.08;;;;;;;-145.93;100.00;59239.47;4943938;28;20019;-87
2022/01/15 04:44:40;;;;;;;67.15;51.50;;;;;;;-145.93;100.00;59239.47;4959387;28;20124;-88
2022/01/15 04:47:06;;;;;;;56.50;50.43;;;;;;;-145.93;100.00;59239.47;4950396;28;20031;-88
2022/01/15 04:49:32;;;;;;;60.05;50.33;;;;;;;-145.93;100.00;59239.47;4948710;28;20015;-88
2022/01/15 04:51:58;;;;;;;53.63;47.43;;;;;;;-145.93;100.00;59239.47;4954440;28;20042;-87
2022/01/15 04:54:24;;;;;;;54.05;48.25;;;;;;;-145.93;100.00;59239.47;4958007;29;20270;-89
2022/01/15 04:56:52;;;;;;;52.73;47.40;;;;;;;-145.93;100.00;59239.47;4936375;29;20042;-88
2022/01/15 04:59:18;;;;;;;57.05;49.92;;;;;;;-145.93;100.00;59239.47;4936080;29;20027;-87
2022/01/15 05:01:43;;;;;;;54.87;49.00;;;;;;;-145.93;100.00;59239.47;4938579;28;20027;-90
2022/01/15 05:04:11;;;;;;;64.60;49.10;;;;;;;-145.93;100.00;59239.47;4942067;29;20034;-88
2022/01/15 05:06:36;;;;;;;53.03;47.72;;;;;;;-145.93;100.00;59239.47;4940085;29;20023;-89
2022/01/15 05:09:05;;;;;;;56.70;48.50;;;;;;;-145.93;100.00;59239.47;4929247;29;20032;-88
2022/01/15 05:11:44;;;;;;;56.92;48.85;;;;;;;-145.93;100.00;59239.47;4948388;28;20035;-88
2022/01/15 05:14:11;;;;;;;57.25;49.67;;;;;;;-145.93;100.00;59239.47;4946853;29;20094;-89
2022/01/15 05:16:36;;;;;;;53.88;48.13;;;;;;;-145.93;100.00;59239.47;4938844;29;20031;-90
2022/01/15 05:19:02;;;;;;;53.83;48.23;;;;;;;-145.93;100.00;59239.47;4937922;29;20091;-90
2022/01/15 05:21:28;;;;;;;62.00;48.97;;;;;;;-145.93;100.00;59239.47;4939311;28;20019;-89
2022/01/15 05:23:53;;;;;;;54.17;48.47;;;;;;;-145.93;100.00;59239.47;4946932;29;20046;-89
2022/01/15 05:26:19;;;;;;;53.90;48.33;;;;;;;-145.93;100.00;59239.47;4939027;29;20386;-89
2022/01/15 05:28:44;;;;;;;54.70;48.73;;;;;;;-145.93;100.00;59239.47;4939512;29;20041;-89
2022/01/15 05:31:09;;;;;;;55.63;48.77;;;;;;;-145.93;100.00;59239.47;4937738;29;20094;-89
2022/01/15 05:33:35;;;;;;;54.50;49.07;;;;;;;-145.93;100.00;59239.47;4945184;28;20091;-89
2022/01/15 05:36:01;;;;;;;56.67;48.80;;;;;;;-145.93;100.00;59239.47;4938557;29;20034;-88
2022/01/15 05:38:26;;;;;;;53.92;48.75;;;;;;;-145.93;100.00;59239.47;4930302;29;20042;-90
2022/01/15 05:40:52;;;;;;;53.97;48.20;;;;;;;-145.93;100.00;59239.47;4922788;29;20040;-88
2022/01/15 05:43:18;;;;;;;55.13;49.17;;;;;;;-145.93;100.00;59239.47;4932541;28;20019;-89
2022/01/15 05:45:43;;;;;;;55.63;49.92;;;;;;;-145.93;100.00;59239.47;4952659;29;20042;-90
2022/01/15 05:48:09;;;;;;;53.73;48.17;;;;;;;-145.93;100.00;59239.47;4932268;29;20485;-90
2022/01/15 05:50:34;;;;;;;54.27;48.90;;;;;;;-145.93;100.00;59239.47;4934555;28;20027;-90
2022/01/15 05:53:02;;;;;;;54.00;48.77;;;;;;;-145.93;100.00;59239.47;4961128;29;20786;-88
2022/01/15 05:55:28;;;;;;;55.20;49.20;;;;;;;-145.93;100.00;59239.47;4949955;28;20069;-90
2022/01/15 05:57:53;;;;;;;54.00;48.17;;;;;;;-145.93;100.00;59239.47;4950253;28;20031;-89
2022/01/15 06:00:19;;;;;;;54.33;48.70;;;;;;;-145.93;100.00;59239.47;4935547;28;20042;-89
2022/01/15 06:02:47;;;;;;;55.17;49.43;;;;;;;-145.93;100.00;59239.47;4940693;29;20023;-89
2022/01/15 06:05:12;;;;;;;58.03;50.70;;;;;;;-145.93;100.00;59239.47;4949521;29;20047;-89
2022/01/15 06:07:38;;;;;;;56.53;48.78;;;;;;;-145.93;100.00;59239.47;4932557;29;20023;-90
2022/01/15 06:10:04;;;;;;;54.23;48.33;;;;;;;-145.93;100.00;59239.47;4935315;29;20030;-89
2022/01/15 06:12:32;;;;;;;54.03;48.63;;;;;;;-145.93;100.00;59239.47;4944059;28;20047;-89
2022/01/15 06:14:58;;;;;;;53.20;47.78;;;;;;;-145.93;100.00;59239.47;4940675;29;20035;-89
2022/01/15 06:17:24;;;;;;;53.97;48.33;;;;;;;-145.93;100.00;59239.47;4934511;29;20024;-89
2022/01/15 06:19:50;;;;;;;59.83;50.20;;;;;;;-145.93;100.00;59239.47;4943064;28;20016;-89
2022/01/15 06:22:15;;;;;;;55.17;49.17;;;;;;;-145.93;100.00;59239.47;4933153;29;20027;-89
2022/01/15 06:24:41;;;;;;;53.40;47.97;;;;;;;-145.93;100.00;59239.47;4940404;29;20030;-88
2022/01/15 06:27:08;;;;;;;53.80;48.70;;;;;;;-145.93;100.00;59239.47;4924229;29;20032;-89
2022/01/15 06:29:33;;;;;;;56.38;49.90;;;;;;;-145.93;100.00;59239.47;4935907;29;20031;-89
2022/01/15 06:31:59;;;;;;;52.92;47.80;;;;;;;-145.93;100.00;59239.47;4961454;28;20139;-89
2022/01/15 06:34:25;;;;;;;54.27;48.47;;;;;;;-145.93;100.00;59239.47;4946033;29;20028;-90
2022/01/15 06:36:53;;;;;;;53.70;48.47;;;;;;;-145.93;100.00;59239.47;4947864;28;20051;-91
2022/01/15 06:39:19;;;;;;;54.22;48.58;;;;;;;-145.93;100.00;59239.47;4945261;29;20096;-91
2022/01/15 06:41:45;;;;;;;55.08;49.00;;;;;;;-145.93;100.00;59239.47;4929062;29;20051;-90
2022/01/15 06:44:10;;;;;;;55.88;50.40;;;;;;;-145.93;100.00;59239.47;4944616;29;20039;-90
2022/01/15 06:46:36;;;;;;;52.90;47.92;;;;;;;-145.93;100.00;59239.47;4927971;29;20038;-90
2022/01/15 06:49:04;;;;;;;54.97;48.47;;;;;;;-145.93;100.00;59239.47;4927407;29;20047;-90
2022/01/15 06:51:29;;;;;;;54.15;48.67;;;;;;;-145.93;100.00;59239.47;4944317;28;20031;-91
2022/01/15 06:53:55;;;;;;;53.83;48.70;;;;;;;-145.93;100.00;59239.47;4951404;28;20035;-90
2022/01/15 06:56:23;;;;;;;54.53;48.87;;;;;;;-145.93;100.00;59239.47;4935003;29;20033;-90
2022/01/15 06:58:51;;;;;;;55.05;49.22;;;;;;;-145.93;100.00;59239.47;4932766;29;20053;-90
2022/01/15 07:01:16;;;;;;;54.17;48.42;;;;;;;-145.93;100.00;59239.47;4932235;28;20091;-90
2022/01/15 07:03:42;;;;;;;53.80;48.47;;;;;;;-145.93;100.00;59239.47;4935089;29;20058;-90
2022/01/15 07:06:08;;;;;;;54.10;48.83;;;;;;;-145.93;100.00;59239.47;4934715;29;20027;-92
2022/01/15 07:08:37;;;;;;;54.42;49.15;;;;;;;-145.93;100.00;59239.47;4938584;29;20050;-90
2022/01/15 07:11:02;;;;;;;53.95;48.70;;;;;;;-145.93;100.00;59239.47;4934501;29;20027;-89
2022/01/15 07:13:29;;;;;;;55.97;50.03;;;;;;;-145.93;100.00;59239.47;4950731;28;20038;-89
2022/01/15 07:15:55;;;;;;;54.42;49.17;;;;;;;-145.93;100.00;59239.47;4944930;29;20038;-89
2022/01/15 07:18:21;;;;;;;54.60;49.33;;;;;;;-145.93;100.00;59239.47;4941475;29;20035;-89
2022/01/15 07:20:46;;;;;;;55.67;49.77;;;;;;;-145.93;100.00;59239.47;4941824;28;20038;-88
2022/01/15 07:23:11;;;;;;;57.10;51.17;;;;;;;-145.93;100.00;59239.47;4945380;28;20023;-90
2022/01/15 07:25:37;;;;;;;56.17;50.63;;;;;;;-145.93;100.00;59239.47;4959295;28;20121;-88
2022/01/15 07:28:02;;;;;;;55.40;49.60;;;;;;;-145.93;100.00;59239.47;4956224;28;20054;-88
2022/01/15 07:30:28;;;;;;;54.30;49.20;;;;;;;-145.93;100.00;59239.47;4948523;29;20027;-89
2022/01/15 07:32:53;;;;;;;55.93;50.20;;;;;;;-145.93;100.00;59239.47;4937118;28;20121;-89
2022/01/15 07:35:19;;;;;;;55.73;50.17;;;;;;;-145.93;100.00;59239.47;4960482;28;20051;-89
2022/01/15 07:37:44;;;;;;;55.80;50.40;;;;;;;-145.93;100.00;59239.47;4966843;28;20038;-90
2022/01/15 07:40:11;;;;;;;54.07;49.33;;;;;;;-145.93;100.00;59239.47;4958120;28;20015;-89
2022/01/15 07:42:38;;;;;;;55.63;50.10;;;;;;;-145.93;100.00;59239.47;4947864;28;20011;-88
2022/01/15 07:45:05;;;;;;;55.63;50.15;;;;;;;-145.93;100.00;59239.47;4937354;29;20028;-89
2022/01/15 07:47:30;;;;;;;56.60;51.13;;;;;;;-145.93;100.00;59239.47;4944695;29;20067;-89
2022/01/15 07:49:55;;;;;;;56.30;50.63;;;;;;;-145.93;100.00;59239.47;4942396;29;20124;-89
2022/01/15 07:52:21;;;;;;;55.17;49.80;;;;;;;-145.93;100.00;59239.47;4947086;29;20031;-89
2022/01/15 07:54:46;;;;;;;55.13;49.77;;;;;;;-145.93;100.00;59239.47;4942478;29;20012;-88
2022/01/15 07:57:11;;;;;;;58.47;51.10;;;;;;;-145.93;100.00;59239.47;4914577;29;20028;-88
2022/01/15 07:59:37;;;;;;;58.33;52.23;;;;;;;-145.93;100.00;59239.47;4933903;29;20023;-90
2022/01/15 08:02:02;;;;;;;56.20;50.33;;;;;;;-145.93;100.00;59239.47;4930432;29;20067;-89
2022/01/15 08:04:28;;;;;;;56.95;51.03;;;;;;;-145.93;100.00;59239.47;4942074;29;20027;-89
2022/01/15 08:06:53;;;;;;;56.87;50.97;;;;;;;-145.93;100.00;59239.47;4933596;29;20453;-89
2022/01/15 08:09:18;;;;;;;57.07;51.10;;;;;;;-145.93;100.00;59239.47;4935099;29;20041;-91
2022/01/15 08:11:44;;;;;;;56.13;50.07;;;;;;;-145.93;100.00;59239.47;4934112;29;20023;-89
2022/01/15 08:14:09;;;;;;;57.00;50.90;;;;;;;-145.93;100.00;59239.47;4944876;29;20055;-89
2022/01/15 08:16:34;;;;;;;54.77;49.53;;;;;;;-145.93;100.00;59239.47;4944253;29;20019;-89
2022/01/15 08:19:00;;;;;;;55.30;50.10;;;;;;;-145.93;100.00;59239.47;4942236;29;20091;-89
2022/01/15 08:21:25;;;;;;;56.77;51.27;;;;;;;-145.93;100.00;59239.47;4947127;28;20058;-89
2022/01/15 08:23:50;;;;;;;56.33;50.57;;;;;;;-145.93;100.00;59239.47;4941753;28;20047;-90
2022/01/15 08:26:16;;;;;;;56.97;50.80;;;;;;;-145.93;100.00;59239.47;4936901;28;20127;-88
2022/01/15 08:28:41;;;;;;;55.63;49.90;;;;;;;-145.93;100.00;59239.47;4941208;29;20023;-89
2022/01/15 08:31:07;;;;;;;56.77;50.67;;;;;;;-145.93;100.00;59239.47;4937534;29;20041;-89
2022/01/15 08:33:32;;;;;;;54.92;49.65;;;;;;;-145.93;100.00;59239.47;4944008;28;20058;-89
2022/01/15 08:35:58;;;;;;;56.50;50.50;;;;;;;-145.93;100.00;59239.47;4936606;29;20076;-90
2022/01/15 08:38:23;;;;;;;55.97;50.53;;;;;;;-145.93;100.00;59239.47;4935601;29;20114;-90
2022/01/15 08:40:49;;;;;;;54.53;49.23;;;;;;;-145.93;100.00;59239.47;4935339;28;20766;-89
2022/01/15 08:43:15;;;;;;;56.03;50.17;;;;;;;-145.93;100.00;59239.47;4958283;28;20018;-88
2022/01/15 08:45:48;;;;;;;54.87;49.63;;;;;;;-145.93;100.00;59239.47;4949497;29;20035;-88
2022/01/15 08:48:19;;;;;;;54.97;49.78;;;;;;;-145.93;100.00;59239.47;4950413;29;20043;-88
2022/01/15 08:50:44;;;;;;;55.30;49.70;;;;;;;-145.93;100.00;59239.47;4947735;28;20395;-88
2022/01/15 08:53:10;;;;;;;55.22;49.80;;;;;;;-145.93;100.00;59239.47;4947355;29;20035;-88
2022/01/15 08:55:35;;;;;;;54.40;49.20;;;;;;;-145.93;100.00;59239.47;4961185;28;20035;-89
2022/01/15 08:58:02;;;;;;;56.43;50.40;;;;;;;-145.93;100.00;59239.47;4960982;28;20037;-89
2022/01/15 09:00:29;;;;;;;56.28;50.30;;;;;;;-145.93;100.00;59239.47;4934933;28;20030;-89
2022/01/15 09:02:55;;;;;;;;;;;;;;;-145.93;100.00;59239.47;4954202;29;20063;-89
2022/01/15 09:05:23;;;;;;;54.45;48.97;;;;;;;-145.93;100.00;59239.47;4963015;28;19997;-89
2022/01/15 09:07:49;;;;;;;56.75;50.65;;;;;;;-145.93;100.00;59239.47;4979444;28;20059;-88
2022/01/15 09:10:15;;;;;;;54.72;49.42;;;;;;;-145.93;100.00;59239.47;4956862;23;20047;-87
2022/01/15 09:12:40;;;;;;;60.45;52.03;;;;;;;-145.93;100.00;59239.47;4919162;29;20388;-86
2022/01/15 09:15:06;;;;;;;58.50;52.20;;;;;;;-145.93;100.00;59239.47;4921610;29;20051;-88
2022/01/15 09:17:32;;;;;;;55.58;49.45;;;;;;;-145.93;100.00;59239.47;4924289;29;20023;-88
2022/01/15 09:19:57;;;;;;;57.57;51.37;;;;;;;-145.93;100.00;59239.47;4926890;29;20064;-85
2022/01/15 09:22:23;;;;;;;56.63;49.77;;;;;;;-145.93;100.00;59239.47;4936459;29;20072;-87
2022/01/15 09:24:48;;;;;;;62.40;51.73;;;;;;;-145.93;100.00;59239.47;4918817;29;20262;-86
2022/01/15 09:30:15;;;;;;;57.65;51.38;;;;;;;-145.93;100.00;59239.47;4960877;28;20046;-85
2022/01/15 09:32:41;;;;;;;56.88;50.80;;;;;;;-145.93;100.00;59239.47;4940289;29;20050;-86
2022/01/15 09:35:11;;;;;;;61.95;52.17;;;;;;;-145.93;100.00;59239.47;4928036;29;20726;-86
2022/01/15 09:37:36;;;;;;;59.63;49.97;;;;;;;-145.93;100.00;59239.47;4934824;29;20027;-86
2022/01/15 09:40:03;;;;;;;61.60;51.67;;;;;;;-145.93;100.00;59239.47;4937218;29;20083;-87
2022/01/15 09:42:28;;;;;;;56.45;50.28;;;;;;;-145.93;100.00;59239.47;4928281;29;20060;-87
2022/01/15 09:44:54;;;;;;;54.50;48.93;;;;;;;-145.93;100.00;59239.47;4911409;29;20028;-87
2022/01/15 09:47:23;;;;;;;56.80;50.73;;;;;;;-145.93;100.00;59239.47;4916917;29;20048;-88
2022/01/15 09:49:53;;;;;;;56.90;50.90;;;;;;;-145.93;100.00;59239.47;4909638;29;20115;-86
2022/01/15 09:52:19;;;;;;;54.42;48.95;;;;;;;-145.93;100.00;59239.47;4911203;29;20031;-87
2022/01/15 09:54:44;;;;;;;57.40;49.92;;;;;;;-145.93;100.00;59239.47;4909795;29;20061;-88
2022/01/15 09:57:13;;;;;;;55.60;50.10;;;;;;;-145.93;100.00;59239.47;4904007;29;20042;-87
2022/01/15 09:59:38;;;;;;;56.03;50.08;;;;;;;-145.93;100.00;59239.47;4913028;29;20027;-86
2022/01/15 10:02:07;;;;;;;55.93;49.07;;;;;;;-145.93;100.00;59239.47;4905019;29;20056;-87
2022/01/15 10:04:34;;;;;;;56.97;50.63;;;;;;;-145.93;100.00;59239.47;4911329;29;20031;-87
2022/01/15 10:07:11;;;;;;;60.17;50.30;;;;;;;-145.93;100.00;59239.47;4931989;29;20033;-85
2022/01/15 10:09:37;;;;;;;55.92;50.05;;;;;;;-145.93;100.00;59239.47;4914783;29;20027;-86
2022/01/15 10:12:06;;;;;;;55.63;50.00;;;;;;;-145.93;100.00;59239.47;4916079;29;20031;-85
2022/01/15 10:14:37;;;;;;;55.17;49.22;;;;;;;-145.93;100.00;59239.47;4929129;29;20065;-85
2022/01/15 10:17:26;;;;;;;56.78;49.67;;;;;;;-145.93;100.00;59239.47;4914509;29;20024;-86
2022/01/15 10:19:52;;;;;;;57.20;51.13;;;;;;;-145.93;100.00;59239.47;4912910;29;20118;-85
2022/01/15 10:22:19;;;;;;;54.70;49.10;;;;;;;-145.93;100.00;59239.47;4944489;29;20024;-86
2022/01/15 10:24:57;;;;;;;;;;;;;;;-145.93;100.00;59239.47;4930149;29;20038;-87
2022/01/15 10:27:29;;;;;;;;;;;;;;;-145.93;100.00;59239.47;4931438;29;19935;-86
2022/01/15 10:30:03;;;;;;;61.10;50.28;;;;;;;-145.93;100.00;59239.47;4930884;29;19930;-84
2022/01/15 10:32:31;;;;;;;64.75;51.78;;;;;;;-145.93;100.00;59239.47;4945101;29;20024;-89
2022/01/15 10:34:57;;;;;;;58.83;50.88;;;;;;;-145.93;100.00;59239.47;4917721;29;20034;-88
2022/01/15 10:37:34;;;;;;;68.15;52.17;;;;;;;-145.93;100.00;59239.47;4936964;29;20027;-88
2022/01/15 10:40:08;;;;;;;69.32;53.42;;;;;;;-145.93;100.00;59239.47;4942874;29;20369;-90
2022/01/15 10:42:37;;;;;;;68.10;52.97;;;;;;;-145.93;100.00;59239.47;4942922;29;20062;-89
2022/01/15 10:45:13;;;;;;;65.55;52.40;;;;;;;-145.93;100.00;59239.47;4927893;29;20012;-88
2022/01/15 10:47:48;;;;;;;61.40;51.70;;;;;;;-145.93;100.00;59239.47;4950557;29;20028;-89
2022/01/15 10:50:28;;;;;;;65.72;52.15;;;;;;;-145.93;100.00;59239.47;4930321;29;20047;-89
2022/01/15 10:52:56;;;;;;;64.03;50.83;;;;;;;-145.93;100.00;59239.47;4932936;29;20494;-86
2022/01/15 10:55:27;;;;;;;66.53;50.60;;;;;;;-145.93;100.00;59239.47;4917050;29;20034;-88
2022/01/15 10:58:08;;;;;;;61.97;51.10;;;;;;;-145.93;100.00;59239.47;4920329;29;20035;-87
2022/01/15 11:00:36;;;;;;;74.25;51.97;;;;;;;-145.93;100.00;59239.47;4927188;29;20027;-86
2022/01/15 11:03:10;;;;;;;78.13;53.90;;;;;;;-145.93;100.00;59239.47;4928365;29;20182;-86
2022/01/15 11:05:37;;;;;;;63.67;51.47;;;;;;;-145.93;100.00;59239.47;4916991;29;20032;-85
2022/01/15 11:08:07;;;;;;;57.05;50.70;;;;;;;-145.93;100.00;59239.47;4917658;29;20030;-86
2022/01/15 11:10:39;;;;;;;64.35;50.97;;;;;;;-145.93;100.00;59239.47;4948653;29;20039;-86
2022/01/15 11:13:07;;;;;;;62.00;51.25;;;;;;;-145.93;100.00;59239.47;4931673;29;20023;-86
2022/01/15 11:15:34;;;;;;;64.30;51.28;;;;;;;-145.93;100.00;59239.47;4929396;29;20024;-86
2022/01/15 11:18:01;;;;;;;67.82;52.08;;;;;;;-145.93;100.00;59239.47;4920504;29;20035;-86